Time;durP1;ratioP1;P1;durP2;ratioP2;P2;SDS_P1;SDS_P2;PMS_P1;PMS_P2;Temp;Humidity;BMP_temperature;BMP_pressure;BME280_temperature;BME280_humidity;BME280_pressure;Samples;Min_cycle;Max_cycle;Signal;HPM_P1;HPM_P2
2021/05/13 00:01:22;;;;;;;9.50;3.90;;;10.20;99.90;;;;;;5083612;28;20492;-74
2021/05/13 00:04:07;;;;;;;5.70;3.60;;;10.30;99.90;;;;;;5079054;28;20453;-73
2021/05/13 00:06:52;;;;;;;4.77;3.17;;;10.30;99.90;;;;;;5080288;28;20822;-75
2021/05/13 00:09:41;;;;;;;5.70;3.43;;;10.40;99.90;;;;;;5091078;28;20495;-74
2021/05/13 00:12:37;;;;;;;5.23;3.90;;;10.10;99.90;;;;;;5081598;28;21057;-74
2021/05/13 00:15:25;;;;;;;5.37;3.70;;;10.00;99.90;;;;;;5086447;28;20983;-73
2021/05/13 00:18:12;;;;;;;7.53;3.77;;;9.90;99.90;;;;;;5081492;28;20436;-74
2021/05/13 00:20:58;;;;;;;4.00;3.00;;;9.90;99.90;;;;;;5077431;28;20454;-74
2021/05/13 00:23:43;;;;;;;13.80;3.90;;;9.90;99.90;;;;;;5085171;28;20904;-74
2021/05/13 00:26:36;;;;;;;6.07;3.60;;;10.00;99.90;;;;;;5084239;28;20966;-73
2021/05/13 00:29:26;;;;;;;5.87;3.63;;;9.80;99.90;;;;;;5090970;28;20831;-74
2021/05/13 00:32:11;;;;;;;5.90;3.77;;;9.70;99.90;;;;;;5080833;28;20511;-73
2021/05/13 00:34:57;;;;;;;4.57;3.20;;;9.70;99.90;;;;;;5086401;28;20860;-74
2021/05/13 00:37:43;;;;;;;4.90;3.43;;;9.60;99.90;;;;;;5083399;28;20481;-74
2021/05/13 00:40:28;;;;;;;5.03;4.30;;;9.60;99.90;;;;;;5082826;28;20433;-75
2021/05/13 00:43:13;;;;;;;5.03;3.80;;;9.60;99.90;;;;;;5088242;28;20461;-73
2021/05/13 00:45:59;;;;;;;5.47;3.70;;;9.60;99.90;;;;;;5086818;28;20450;-75
2021/05/13 00:48:46;;;;;;;4.13;3.20;;;9.70;99.90;;;;;;5070802;28;20811;-76
2021/05/13 00:51:32;;;;;;;7.37;3.80;;;9.80;99.90;;;;;;5075857;28;20921;-73
2021/05/13 00:54:18;;;;;;;6.73;3.20;;;9.90;99.90;;;;;;5078273;28;20446;-73
2021/05/13 00:57:04;;;;;;;3.97;3.27;;;10.00;99.90;;;;;;5074474;28;20442;-74
2021/05/13 00:59:53;;;;;;;6.60;3.40;;;10.00;99.90;;;;;;5086289;28;20497;-74
2021/05/13 01:02:39;;;;;;;5.83;3.43;;;10.00;99.90;;;;;;5085125;28;21045;-75
2021/05/13 01:05:25;;;;;;;4.33;3.70;;;10.00;99.90;;;;;;5081809;28;20961;-74
2021/05/13 01:08:11;;;;;;;5.30;3.47;;;10.00;99.90;;;;;;5082758;28;20461;-74
2021/05/13 01:10:56;;;;;;;6.57;4.03;;;10.00;99.90;;;;;;5085850;28;20511;-74
2021/05/13 01:13:54;;;;;;;4.73;3.23;;;9.90;99.90;;;;;;5086688;28;20473;-73
2021/05/13 01:16:47;;;;;;;4.50;3.30;;;9.80;99.90;;;;;;5074656;28;21031;-75
2021/05/13 01:19:33;;;;;;;5.20;3.57;;;9.70;99.90;;;;;;5077536;28;20478;-74
2021/05/13 01:22:21;;;;;;;3.67;2.93;;;9.50;99.90;;;;;;5080413;28;20448;-73
2021/05/13 01:25:08;;;;;;;4.00;3.50;;;9.40;99.90;;;;;;5078470;28;20451;-74
2021/05/13 01:27:57;;;;;;;4.67;3.57;;;9.50;99.90;;;;;;5085748;28;20479;-73
2021/05/13 01:30:44;;;;;;;6.00;3.70;;;9.70;99.90;;;;;;5087105;28;20444;-74
2021/05/13 01:33:29;;;;;;;6.80;3.47;;;9.80;99.90;;;;;;5083848;28;20465;-74
2021/05/13 01:36:14;;;;;;;6.33;3.77;;;9.90;99.90;;;;;;5087753;28;20430;-74
2021/05/13 01:39:01;;;;;;;4.77;3.53;;;9.90;99.90;;;;;;5078287;28;21112;-74
2021/05/13 01:41:47;;;;;;;4.57;3.37;;;10.00;99.90;;;;;;5079368;28;20546;-73
2021/05/13 01:44:32;;;;;;;6.27;3.50;;;10.10;99.90;;;;;;5088621;28;20839;-74
2021/05/13 01:47:17;;;;;;;6.27;3.30;;;9.80;99.90;;;;;;5089007;28;20531;-73
2021/05/13 01:50:04;;;;;;;4.13;3.40;;;9.60;99.90;;;;;;5080781;28;20456;-74
2021/05/13 01:52:49;;;;;;;6.40;3.90;;;9.40;99.90;;;;;;5080152;28;20483;-73
2021/05/13 01:55:36;;;;;;;4.53;3.40;;;9.30;99.90;;;;;;5086695;28;20542;-75
2021/05/13 01:58:21;;;;;;;4.20;3.80;;;9.20;99.90;;;;;;5077794;28;20519;-73
2021/05/13 02:01:09;;;;;;;4.37;3.50;;;9.30;99.90;;;;;;5088342;28;20471;-76
2021/05/13 02:03:55;;;;;;;4.20;3.10;;;9.40;99.90;;;;;;5082766;28;20442;-73
2021/05/13 02:06:40;;;;;;;4.50;3.40;;;9.60;99.90;;;;;;5084666;28;20443;-74
2021/05/13 02:09:25;;;;;;;3.60;3.20;;;9.70;99.90;;;;;;5087371;28;20652;-74
2021/05/13 02:12:11;;;;;;;4.80;3.33;;;9.60;99.90;;;;;;5086525;28;20491;-73
2021/05/13 02:14:56;;;;;;;4.77;3.40;;;9.50;99.90;;;;;;5094198;28;20564;-73
2021/05/13 02:17:42;;;;;;;5.90;3.67;;;9.30;99.90;;;;;;5088305;28;20504;-73
2021/05/13 02:20:27;;;;;;;4.90;3.17;;;9.40;99.90;;;;;;5077876;28;21041;-74
2021/05/13 02:23:12;;;;;;;5.27;3.43;;;9.40;99.90;;;;;;5083346;28;20565;-73
2021/05/13 02:25:59;;;;;;;4.40;3.37;;;9.50;99.90;;;;;;5086302;28;20442;-74
2021/05/13 02:28:45;;;;;;;5.47;3.30;;;9.40;99.90;;;;;;5084869;28;20460;-74
2021/05/13 02:31:30;;;;;;;8.00;3.73;;;9.20;99.90;;;;;;5085622;28;20568;-73
2021/05/13 02:34:15;;;;;;;7.03;3.30;;;9.20;99.90;;;;;;5096558;28;20421;-75
2021/05/13 02:37:01;;;;;;;5.03;3.27;;;9.40;99.90;;;;;;5090148;28;20769;-73
2021/05/13 02:39:46;;;;;;;4.23;3.67;;;9.40;99.90;;;;;;5082823;28;20555;-75
2021/05/13 02:42:31;;;;;;;4.20;3.40;;;9.30;99.90;;;;;;5091620;28;20470;-75
2021/05/13 02:45:17;;;;;;;9.13;3.40;;;9.20;99.90;;;;;;5090127;28;20537;-75
2021/05/13 02:48:02;;;;;;;11.70;4.47;;;9.10;99.90;;;;;;5089703;28;20437;-73
2021/05/13 02:50:47;;;;;;;4.50;3.77;;;9.20;99.90;;;;;;5088301;28;20418;-74
2021/05/13 02:53:32;;;;;;;6.00;3.57;;;9.20;99.90;;;;;;5080959;28;20436;-74
2021/05/13 02:56:18;;;;;;;10.53;4.43;;;9.10;99.90;;;;;;5083679;28;20495;-73
2021/05/13 02:59:03;;;;;;;4.73;3.87;;;9.10;99.90;;;;;;5091551;28;20477;-73
2021/05/13 03:01:49;;;;;;;7.77;4.60;;;9.00;99.90;;;;;;5079078;28;21074;-74
2021/05/13 03:04:34;;;;;;;7.90;3.97;;;9.00;99.90;;;;;;5083017;28;20438;-75
2021/05/13 03:07:20;;;;;;;4.93;4.43;;;8.80;99.90;;;;;;5083010;28;20955;-73
2021/05/13 03:10:14;;;;;;;5.50;4.23;;;8.70;99.90;;;;;;5073774;28;20431;-73
2021/05/13 03:12:59;;;;;;;6.03;4.43;;;8.80;99.90;;;;;;5085336;28;21299;-74
2021/05/13 03:15:45;;;;;;;8.07;3.90;;;8.90;99.90;;;;;;5087709;28;20989;-75
2021/05/13 03:18:33;;;;;;;5.40;4.30;;;8.80;99.90;;;;;;5084867;28;20441;-73
2021/05/13 03:21:23;;;;;;;4.27;3.70;;;8.90;99.90;;;;;;5078693;28;20438;-74
2021/05/13 03:24:11;;;;;;;5.70;4.13;;;8.80;99.90;;;;;;5080000;28;20445;-74
2021/05/13 03:27:02;;;;;;;6.40;4.10;;;9.10;99.90;;;;;;5089116;28;20456;-74
2021/05/13 03:29:48;;;;;;;4.70;3.77;;;9.20;99.90;;;;;;5079657;28;20445;-75
2021/05/13 03:32:33;;;;;;;4.90;4.13;;;9.10;99.90;;;;;;5083441;28;20492;-74
2021/05/13 03:35:19;;;;;;;5.30;4.20;;;9.00;99.90;;;;;;5092024;28;20939;-73
2021/05/13 03:38:06;;;;;;;8.20;4.50;;;8.90;99.90;;;;;;5088391;28;20551;-74
2021/05/13 03:40:51;;;;;;;6.13;4.23;;;8.70;99.90;;;;;;5085072;28;20429;-74
2021/05/13 03:43:36;;;;;;;8.03;4.50;;;8.50;99.90;;;;;;5086645;28;20528;-74
2021/05/13 03:46:21;;;;;;;7.77;5.43;;;8.40;99.90;;;;;;5091592;28;20442;-74
2021/05/13 03:49:06;;;;;;;7.00;5.53;;;8.30;99.90;;;;;;5088502;28;20449;-74
2021/05/13 03:51:52;;;;;;;8.07;5.77;;;8.30;99.90;;;;;;5089840;28;20991;-73
2021/05/13 03:54:37;;;;;;;7.90;4.97;;;8.60;99.90;;;;;;5080096;28;20460;-73
2021/05/13 03:57:22;;;;;;;6.87;5.23;;;8.80;99.90;;;;;;5087092;28;20430;-74
2021/05/13 04:00:09;;;;;;;10.77;5.23;;;9.00;99.90;;;;;;5077091;28;20471;-73
2021/05/13 04:02:54;;;;;;;8.70;5.13;;;9.10;99.90;;;;;;5088484;28;20508;-74
2021/05/13 04:05:39;;;;;;;7.13;5.80;;;9.20;99.90;;;;;;5088749;28;21016;-73
2021/05/13 04:08:26;;;;;;;15.80;6.33;;;9.30;99.90;;;;;;5084524;28;20540;-74
2021/05/13 04:11:11;;;;;;;9.43;5.10;;;9.40;99.90;;;;;;5084759;28;20420;-73
2021/05/13 04:13:56;;;;;;;10.37;5.13;;;9.40;99.90;;;;;;5088997;28;20453;-73
2021/05/13 04:16:43;;;;;;;7.50;5.40;;;9.50;99.90;;;;;;5090128;28;20422;-74
2021/05/13 04:19:28;;;;;;;11.10;6.33;;;9.20;99.90;;;;;;5090143;28;20465;-72
2021/05/13 04:22:14;;;;;;;7.17;6.17;;;9.00;99.90;;;;;;5087967;28;20454;-74
2021/05/13 04:25:00;;;;;;;10.03;6.17;;;9.20;99.90;;;;;;5078956;28;20435;-73
2021/05/13 04:27:46;;;;;;;8.60;6.60;;;9.20;99.90;;;;;;5070976;28;20418;-74
2021/05/13 04:30:31;;;;;;;10.67;6.33;;;9.10;99.90;;;;;;5083060;28;20442;-74
2021/05/13 04:33:17;;;;;;;7.50;6.57;;;9.10;99.90;;;;;;5079823;28;20536;-75
2021/05/13 04:36:02;;;;;;;13.80;6.33;;;9.10;99.90;;;;;;5088454;28;20409;-73
2021/05/13 04:38:47;;;;;;;9.40;5.97;;;9.10;99.90;;;;;;5078432;28;20507;-75
2021/05/13 04:41:34;;;;;;;10.77;6.80;;;9.20;99.90;;;;;;5072239;28;20478;-73
2021/05/13 04:44:19;;;;;;;13.27;7.60;;;9.40;99.90;;;;;;5082610;28;20786;-75
2021/05/13 04:47:20;;;;;;;8.70;7.20;;;9.50;99.90;;;;;;5089916;28;20449;-73
2021/05/13 04:50:07;;;;;;;9.47;6.67;;;9.60;99.90;;;;;;5085678;28;20495;-73
2021/05/13 04:52:52;;;;;;;9.67;7.97;;;9.70;99.90;;;;;;5082015;28;21041;-74
2021/05/13 04:55:39;;;;;;;9.47;7.00;;;9.70;99.90;;;;;;5080520;28;20474;-74
2021/05/13 04:58:25;;;;;;;11.83;7.23;;;9.70;99.90;;;;;;5076047;28;20449;-74
2021/05/13 05:01:10;;;;;;;9.67;7.30;;;9.70;99.90;;;;;;5081584;28;20424;-73
2021/05/13 05:03:55;;;;;;;11.00;7.13;;;9.80;99.90;;;;;;5089002;28;20608;-73
2021/05/13 05:06:40;;;;;;;9.17;6.90;;;9.90;99.90;;;;;;5087919;28;20420;-74
2021/05/13 05:09:25;;;;;;;8.70;6.67;;;9.90;99.90;;;;;;5084088;28;20476;-73
2021/05/13 05:12:12;;;;;;;10.70;6.90;;;9.90;99.90;;;;;;5085807;28;21076;-74
2021/05/13 05:14:58;;;;;;;12.20;8.60;;;10.00;99.90;;;;;;5077550;28;21012;-74
2021/05/13 05:17:43;;;;;;;12.37;7.73;;;10.00;99.90;;;;;;5084664;28;20950;-73
2021/05/13 05:20:28;;;;;;;16.20;6.40;;;9.80;99.90;;;;;;5079975;28;20516;-74
2021/05/13 05:23:13;;;;;;;8.50;6.10;;;9.60;99.90;;;;;;5073254;28;20462;-74
2021/05/13 05:25:58;;;;;;;7.90;7.00;;;9.40;99.90;;;;;;5076275;28;20486;-74
2021/05/13 05:28:44;;;;;;;9.07;6.50;;;9.40;99.90;;;;;;5082833;28;20533;-74
2021/05/13 05:31:30;;;;;;;8.10;6.40;;;9.50;99.90;;;;;;5070810;28;20373;-73
2021/05/13 05:34:15;;;;;;;9.73;7.50;;;9.80;99.90;;;;;;5082571;28;20453;-75
2021/05/13 05:37:00;;;;;;;6.60;6.00;;;9.90;99.90;;;;;;5074638;28;20446;-74
2021/05/13 05:39:46;;;;;;;7.90;6.70;;;10.10;99.90;;;;;;5085380;28;20469;-75
2021/05/13 05:42:31;;;;;;;9.93;5.83;;;10.30;99.90;;;;;;5074497;28;20540;-76
2021/05/13 05:45:16;;;;;;;7.60;6.10;;;10.40;99.90;;;;;;5089788;28;20404;-74
2021/05/13 05:48:03;;;;;;;6.90;6.00;;;10.60;99.90;;;;;;5077336;28;20733;-74
2021/05/13 05:50:49;;;;;;;7.27;6.43;;;10.70;99.90;;;;;;5073281;28;20446;-73
2021/05/13 05:53:34;;;;;;;8.57;6.50;;;10.80;99.90;;;;;;5084733;28;20465;-74
2021/05/13 05:56:19;;;;;;;9.63;7.53;;;10.90;99.90;;;;;;5076604;28;20883;-73
2021/05/13 05:59:06;;;;;;;8.90;5.97;;;11.00;99.90;;;;;;5086103;28;20500;-74
2021/05/13 06:01:51;;;;;;;6.50;5.50;;;11.10;99.90;;;;;;5090012;28;20473;-74
2021/05/13 06:04:37;;;;;;;7.93;5.63;;;11.10;99.90;;;;;;5082766;28;20547;-74
2021/05/13 06:07:22;;;;;;;6.50;5.47;;;11.30;99.90;;;;;;5085704;28;21023;-74
2021/05/13 06:10:10;;;;;;;8.87;4.20;;;11.40;99.90;;;;;;5079924;28;20417;-76
2021/05/13 06:12:56;;;;;;;5.77;4.67;;;11.40;99.90;;;;;;5081542;28;20521;-74
2021/05/13 06:15:41;;;;;;;6.23;4.80;;;11.50;99.90;;;;;;5082663;28;20442;-74
2021/05/13 06:18:26;;;;;;;7.07;4.37;;;11.60;99.90;;;;;;5081978;28;20450;-74
2021/05/13 06:21:12;;;;;;;7.43;4.73;;;11.70;99.90;;;;;;5088643;28;20463;-73
2021/05/13 06:24:00;;;;;;;5.60;4.50;;;11.70;99.90;;;;;;5082443;28;20491;-74
2021/05/13 06:26:54;;;;;;;8.00;4.70;;;11.80;99.90;;;;;;5088169;28;20878;-74
2021/05/13 06:29:39;;;;;;;6.70;4.70;;;11.80;99.90;;;;;;5087285;28;20429;-74
2021/05/13 06:32:26;;;;;;;7.73;5.00;;;12.00;99.90;;;;;;5083484;28;20465;-74
2021/05/13 06:35:11;;;;;;;5.10;4.60;;;12.00;99.90;;;;;;5093762;28;20488;-76
2021/05/13 06:37:58;;;;;;;7.63;5.70;;;12.20;99.90;;;;;;5082642;28;20438;-76
2021/05/13 06:40:43;;;;;;;6.50;5.37;;;12.30;99.90;;;;;;5081953;28;20493;-76
2021/05/13 06:43:28;;;;;;;7.37;5.20;;;12.30;99.90;;;;;;5083521;28;20865;-76
2021/05/13 06:46:13;;;;;;;8.80;4.43;;;12.30;99.90;;;;;;5088321;28;20946;-77
2021/05/13 06:48:58;;;;;;;11.30;5.13;;;12.40;99.90;;;;;;5085695;28;20440;-75
2021/05/13 06:51:43;;;;;;;6.53;5.03;;;12.50;99.90;;;;;;5081459;28;20467;-74
2021/05/13 06:54:29;;;;;;;8.93;5.30;;;12.50;99.90;;;;;;5090970;28;20921;-71
2021/05/13 06:57:14;;;;;;;8.00;5.00;;;12.60;99.90;;;;;;5076291;28;20488;-72
2021/05/13 06:59:59;;;;;;;5.50;4.00;;;12.70;99.90;;;;;;5087126;28;20997;-72
2021/05/13 07:02:47;;;;;;;6.03;4.57;;;12.90;99.90;;;;;;5093368;28;20416;-72
2021/05/13 07:05:32;;;;;;;7.37;4.63;;;13.10;99.90;;;;;;5091016;28;20441;-72
2021/05/13 07:08:18;;;;;;;8.23;4.53;;;13.40;99.90;;;;;;5090548;28;20445;-72
2021/05/13 07:11:04;;;;;;;7.30;4.17;;;13.50;99.90;;;;;;5090595;28;20437;-72
2021/05/13 07:13:49;;;;;;;5.63;4.00;;;13.70;99.90;;;;;;5091613;28;20444;-72
2021/05/13 07:16:34;;;;;;;7.70;4.40;;;13.80;99.90;;;;;;5080779;28;20552;-72
2021/05/13 07:19:19;;;;;;;10.63;4.60;;;13.90;99.90;;;;;;5092667;28;20440;-72
2021/05/13 07:22:05;;;;;;;7.37;4.50;;;14.10;99.90;;;;;;5085090;28;20473;-71
2021/05/13 07:24:50;;;;;;;7.50;4.33;;;14.20;99.90;;;;;;5092157;28;20449;-72
2021/05/13 07:27:36;;;;;;;9.77;4.20;;;14.30;99.90;;;;;;5089019;28;21002;-69
2021/05/13 07:30:22;;;;;;;5.27;4.00;;;14.40;99.90;;;;;;5088979;28;20426;-70
2021/05/13 07:33:07;;;;;;;7.03;4.67;;;14.50;99.90;;;;;;5082839;28;20511;-69
2021/05/13 07:35:52;;;;;;;8.70;4.43;;;14.70;99.90;;;;;;5077130;28;20446;-73
2021/05/13 07:38:37;;;;;;;7.90;3.93;;;14.80;99.90;;;;;;5079550;28;20813;-74
2021/05/13 07:41:23;;;;;;;5.47;4.03;;;14.90;99.90;;;;;;5092650;28;20468;-74
2021/05/13 07:44:09;;;;;;;7.67;4.10;;;14.90;99.90;;;;;;5088798;28;20524;-74
2021/05/13 07:46:57;;;;;;;7.63;3.90;;;14.90;99.90;;;;;;5092583;28;20786;-74
2021/05/13 07:49:42;;;;;;;12.50;3.03;;;15.00;99.90;;;;;;5090818;28;20416;-74
2021/05/13 07:52:27;;;;;;;9.30;3.50;;;15.00;99.90;;;;;;5092351;28;20472;-74
2021/05/13 07:55:13;;;;;;;5.13;3.13;;;14.90;99.90;;;;;;5079327;28;20458;-73
2021/05/13 07:57:58;;;;;;;9.60;3.90;;;15.00;99.90;;;;;;5079877;28;20441;-76
2021/05/13 08:00:44;;;;;;;7.80;4.27;;;15.00;99.90;;;;;;5083957;28;20469;-76
2021/05/13 08:03:29;;;;;;;9.70;3.90;;;15.10;99.90;;;;;;5074860;28;20448;-77
2021/05/13 08:06:14;;;;;;;8.17;4.40;;;15.10;99.90;;;;;;5082479;28;20518;-75
2021/05/13 08:08:59;;;;;;;10.27;3.50;;;15.00;99.90;;;;;;5081228;28;20462;-75
2021/05/13 08:11:44;;;;;;;6.73;3.83;;;15.20;99.90;;;;;;5083901;28;20492;-75
2021/05/13 08:14:30;;;;;;;9.03;3.70;;;15.30;99.90;;;;;;5076086;28;21004;-75
2021/05/13 08:17:16;;;;;;;10.00;3.60;;;15.40;99.90;;;;;;5081771;28;20516;-75
2021/05/13 08:20:01;;;;;;;10.17;3.17;;;15.60;99.90;;;;;;5084760;28;20528;-76
2021/05/13 08:22:47;;;;;;;10.03;3.70;;;15.60;99.90;;;;;;5083234;28;20992;-76
2021/05/13 08:25:33;;;;;;;10.40;4.40;;;15.80;99.90;;;;;;5082080;28;20454;-76
2021/05/13 08:28:18;;;;;;;10.73;4.00;;;15.90;99.90;;;;;;5082479;28;20491;-76
2021/05/13 08:31:03;;;;;;;11.87;3.93;;;16.10;99.90;;;;;;5085764;28;20984;-76
2021/05/13 08:33:49;;;;;;;10.03;4.37;;;16.30;99.90;;;;;;5089298;28;20492;-75
2021/05/13 08:36:34;;;;;;;9.40;4.50;;;16.30;99.90;;;;;;5085532;28;20414;-75
2021/05/13 08:39:19;;;;;;;7.70;4.40;;;16.30;99.90;;;;;;5086126;28;20462;-75
2021/05/13 08:42:05;;;;;;;9.00;4.70;;;16.30;99.90;;;;;;5074623;28;20483;-76
2021/05/13 08:44:51;;;;;;;10.60;5.40;;;16.40;99.90;;;;;;5089994;28;20449;-76
2021/05/13 08:47:41;;;;;;;11.00;5.67;;;16.30;99.90;;;;;;5080600;28;21011;-76
2021/05/13 08:50:27;;;;;;;9.80;4.50;;;16.20;99.90;;;;;;5083505;28;20417;-76
2021/05/13 08:53:12;;;;;;;13.40;5.40;;;16.20;99.90;;;;;;5085373;28;20576;-76
2021/05/13 08:55:57;;;;;;;7.57;4.60;;;16.30;99.90;;;;;;5080957;28;20880;-76
2021/05/13 08:58:42;;;;;;;5.20;3.10;;;16.50;99.90;;;;;;5082821;28;20975;-76
2021/05/13 09:01:28;;;;;;;6.87;3.60;;;16.60;99.90;;;;;;5086795;28;20458;-75
2021/05/13 09:04:13;;;;;;;5.87;3.70;;;16.60;99.90;;;;;;5082834;28;20451;-75
2021/05/13 09:07:09;;;;;;;10.47;4.27;;;16.80;99.90;;;;;;5087575;28;20400;-75
2021/05/13 09:10:00;;;;;;;12.90;3.80;;;16.80;99.90;;;;;;5086141;28;20505;-75
2021/05/13 09:12:47;;;;;;;8.23;4.20;;;17.00;99.90;;;;;;5083014;28;21042;-75
2021/05/13 09:15:33;;;;;;;10.90;4.23;;;17.10;99.90;;;;;;5091118;28;20396;-76
2021/05/13 09:18:30;;;;;;;7.93;3.73;;;17.00;99.90;;;;;;5081410;28;20511;-75
2021/05/13 09:21:15;;;;;;;7.20;3.60;;;17.00;99.90;;;;;;5084445;28;20485;-75
2021/05/13 09:24:02;;;;;;;12.07;3.10;;;16.90;99.90;;;;;;5086528;28;20946;-75
2021/05/13 09:26:47;;;;;;;7.87;3.47;;;17.00;99.90;;;;;;5077818;28;20506;-75
2021/05/13 09:29:32;;;;;;;14.63;3.20;;;17.10;99.70;;;;;;5083350;28;20426;-75
2021/05/13 09:32:19;;;;;;;7.57;2.53;;;16.90;98.60;;;;;;5078545;28;20481;-75
2021/05/13 09:35:06;;;;;;;9.47;2.43;;;16.80;99.80;;;;;;5090183;28;20492;-75
2021/05/13 09:37:53;;;;;;;8.10;2.90;;;16.90;98.70;;;;;;5078731;28;20462;-75
2021/05/13 09:40:40;;;;;;;7.07;3.23;;;17.00;99.90;;;;;;5086908;28;20956;-75
2021/05/13 09:43:31;;;;;;;7.27;3.27;;;17.30;99.90;;;;;;5088313;28;20470;-75
2021/05/13 09:46:31;;;;;;;13.77;2.77;;;17.30;91.40;;;;;;5089822;28;20418;-76
2021/05/13 09:49:17;;;;;;;9.00;2.80;;;17.40;95.60;;;;;;5081503;28;20454;-76
2021/05/13 09:52:01;;;;;;;7.73;2.80;;;17.50;86.60;;;;;;5095093;28;20412;-74
2021/05/13 09:55:17;;;;;;;11.97;2.70;;;17.60;86.70;;;;;;5091281;28;20482;-74
2021/05/13 09:58:06;;;;;;;7.70;2.90;;;17.60;82.00;;;;;;5074174;28;20926;-74
2021/05/13 10:00:51;;;;;;;12.00;2.93;;;17.80;82.10;;;;;;5090446;28;20473;-74
2021/05/13 10:03:36;;;;;;;7.23;2.73;;;17.90;77.60;;;;;;5089118;28;20436;-74
2021/05/13 10:06:22;;;;;;;14.20;3.10;;;17.90;76.90;;;;;;5090332;28;20547;-74
2021/05/13 10:09:07;;;;;;;6.80;2.47;;;17.90;76.80;;;;;;5085999;28;20500;-74
2021/05/13 10:11:54;;;;;;;6.57;1.97;;;17.90;71.30;;;;;;5094731;28;20437;-74
2021/05/13 10:14:40;;;;;;;5.00;1.87;;;17.70;67.90;;;;;;5091676;28;20916;-74
2021/05/13 10:17:25;;;;;;;6.10;2.73;;;17.90;70.80;;;;;;5088033;28;20979;-74
2021/05/13 10:20:13;;;;;;;13.83;2.90;;;18.00;68.10;;;;;;5073937;28;20834;-74
2021/05/13 10:22:58;;;;;;;4.40;1.67;;;18.20;75.50;;;;;;5088154;28;20465;-74
2021/05/13 10:25:44;;;;;;;4.77;2.20;;;18.40;68.30;;;;;;5086688;28;20491;-74
2021/05/13 10:28:30;;;;;;;6.07;2.10;;;18.40;63.00;;;;;;5086037;28;20443;-74
2021/05/13 10:31:16;;;;;;;7.10;1.93;;;18.50;63.70;;;;;;5087319;28;20485;-74
2021/05/13 10:34:01;;;;;;;4.83;2.00;;;18.70;65.10;;;;;;5083930;28;20473;-73
2021/05/13 10:37:08;;;;;;;5.33;2.17;;;18.90;63.70;;;;;;5092851;28;20456;-73
2021/05/13 10:40:18;;;;;;;5.10;1.90;;;19.00;63.00;;;;;;5080740;28;20439;-74
2021/05/13 10:43:04;;;;;;;6.67;2.33;;;19.10;64.20;;;;;;5086918;28;20444;-73
2021/05/13 10:45:49;;;;;;;6.80;2.33;;;18.90;58.70;;;;;;5092053;28;20496;-74
2021/05/13 10:48:40;;;;;;;4.40;2.30;;;19.00;60.90;;;;;;5079156;28;20520;-74
2021/05/13 10:51:26;;;;;;;6.40;2.30;;;19.20;57.00;;;;;;5092114;28;20490;-74
2021/05/13 10:54:44;;;;;;;8.30;2.47;;;19.40;59.40;;;;;;5092024;28;20454;-74
2021/05/13 10:57:46;;;;;;;9.23;2.93;;;19.60;60.10;;;;;;5083992;28;20420;-74
2021/05/13 11:00:31;;;;;;;6.70;2.10;;;19.80;60.90;;;;;;5088815;28;20527;-74
2021/05/13 11:03:20;;;;;;;6.33;2.47;;;19.80;55.30;;;;;;5078453;28;20468;-74
2021/05/13 11:06:44;;;;;;;10.37;2.40;;;19.90;57.00;;;;;;5086819;28;20433;-74
2021/05/13 11:10:07;;;;;;;4.00;2.23;;;19.90;56.80;;;;;;5085646;28;20428;-74
2021/05/13 11:13:09;;;;;;;15.10;2.80;;;20.00;52.80;;;;;;5072694;28;20445;-74
2021/05/13 11:15:54;;;;;;;5.63;1.97;;;19.60;50.80;;;;;;5086715;28;20445;-74
2021/05/13 11:18:39;;;;;;;7.77;2.20;;;19.50;58.10;;;;;;5090799;28;20481;-74
2021/05/13 11:21:55;;;;;;;6.33;2.10;;;19.80;58.70;;;;;;5077423;28;20857;-73
2021/05/13 11:24:41;;;;;;;8.10;2.10;;;19.80;53.10;;;;;;5083090;28;20469;-73
2021/05/13 11:27:29;;;;;;;4.30;2.00;;;19.50;50.30;;;;;;5081137;28;20491;-72
2021/05/13 11:30:16;;;;;;;6.30;1.90;;;19.40;49.20;;;;;;5091729;28;20454;-73
2021/05/13 11:33:02;;;;;;;10.10;2.80;;;19.00;50.00;;;;;;5075949;28;20590;-73
2021/05/13 11:35:47;;;;;;;4.23;1.70;;;18.90;53.20;;;;;;5085117;28;20454;-73
2021/05/13 11:38:33;;;;;;;4.87;2.10;;;18.80;54.60;;;;;;5080063;28;20455;-73
2021/05/13 11:41:18;;;;;;;5.90;2.43;;;18.60;53.90;;;;;;5081205;28;20531;-75
2021/05/13 11:44:04;;;;;;;10.33;2.13;;;18.60;57.10;;;;;;5079983;28;20522;-75
2021/05/13 11:46:51;;;;;;;7.87;2.13;;;18.60;59.50;;;;;;5083598;28;20820;-75
2021/05/13 11:49:36;;;;;;;4.80;2.00;;;18.40;56.80;;;;;;5085356;28;20804;-75
2021/05/13 11:52:21;;;;;;;6.30;2.33;;;18.10;57.40;;;;;;5072421;28;20485;-75
2021/05/13 11:55:30;;;;;;;10.43;3.23;;;17.70;70.80;;;;;;5079872;28;20469;-75
2021/05/13 11:58:34;;;;;;;3.57;2.30;;;17.50;85.50;;;;;;5072083;28;20385;-75
2021/05/13 12:01:22;;;;;;;6.23;3.00;;;17.10;94.30;;;;;;5072477;28;20449;-75
2021/05/13 12:04:09;;;;;;;4.80;2.87;;;16.80;97.80;;;;;;5074594;28;20499;-75
2021/05/13 12:06:57;;;;;;;6.37;2.17;;;16.50;99.90;;;;;;5087881;28;20878;-75
2021/05/13 12:09:49;;;;;;;8.03;2.53;;;16.20;99.90;;;;;;5089005;28;20556;-74
2021/05/13 12:12:35;;;;;;;12.53;2.90;;;16.00;99.90;;;;;;5085632;28;20440;-76
2021/05/13 12:15:21;;;;;;;10.97;3.10;;;15.80;99.90;;;;;;5080157;28;20466;-74
2021/05/13 12:18:07;;;;;;;8.13;3.23;;;15.50;99.90;;;;;;5091469;28;20428;-74
2021/05/13 12:20:52;;;;;;;8.57;3.63;;;15.30;99.90;;;;;;5090077;28;20565;-74
2021/05/13 12:23:40;;;;;;;9.83;2.77;;;15.40;99.90;;;;;;5091320;28;20945;-76
2021/05/13 12:26:26;;;;;;;9.80;3.03;;;15.50;99.90;;;;;;5071759;28;20903;-74
2021/05/13 12:29:15;;;;;;;10.77;2.50;;;15.50;99.90;;;;;;5075238;28;20463;-75
2021/05/13 12:32:00;;;;;;;6.70;2.80;;;15.50;99.90;;;;;;5088951;28;20432;-75
2021/05/13 12:34:49;;;;;;;14.73;3.20;;;15.50;99.90;;;;;;5081287;28;20421;-76
2021/05/13 12:37:34;;;;;;;9.67;4.17;;;15.50;99.90;;;;;;5084392;28;20444;-75
2021/05/13 12:40:20;;;;;;;5.30;2.70;;;15.50;99.90;;;;;;5089122;28;20450;-76
2021/05/13 12:43:13;;;;;;;8.20;3.30;;;15.80;99.90;;;;;;5089172;28;20466;-76
2021/05/13 12:45:59;;;;;;;7.70;2.53;;;16.10;99.90;;;;;;5091654;28;20475;-76
2021/05/13 12:48:45;;;;;;;3.60;2.40;;;16.40;99.90;;;;;;5085762;28;20421;-76
2021/05/13 12:51:30;;;;;;;4.87;1.80;;;16.70;99.90;;;;;;5070985;28;20401;-76
2021/05/13 12:54:18;;;;;;;11.63;6.73;;;16.70;99.90;;;;;;5076866;28;20471;-76
2021/05/13 12:57:15;;;;;;;5.70;1.73;;;16.80;99.90;;;;;;5091380;28;20489;-76
2021/05/13 13:00:01;;;;;;;4.57;1.83;;;16.70;99.90;;;;;;5082322;28;20514;-76
2021/05/13 13:02:47;;;;;;;3.57;1.67;;;16.70;99.90;;;;;;5071376;28;20493;-76
2021/05/13 13:05:32;;;;;;;5.20;1.50;;;16.70;99.90;;;;;;5082889;28;20441;-77
2021/05/13 13:08:40;;;;;;;4.33;1.77;;;16.60;99.90;;;;;;5086333;28;20448;-76
2021/05/13 13:11:34;;;;;;;8.43;1.40;;;16.70;99.90;;;;;;5091054;28;20754;-76
2021/05/13 13:14:25;;;;;;;8.30;1.23;;;16.70;99.90;;;;;;5086340;28;20424;-76
2021/05/13 13:17:21;;;;;;;5.20;1.53;;;16.80;99.90;;;;;;5091019;28;20404;-76
2021/05/13 13:20:09;;;;;;;3.70;0.93;;;16.90;99.90;;;;;;5082885;28;20548;-76
2021/05/13 13:22:54;;;;;;;2.43;0.90;;;16.90;99.90;;;;;;5072513;28;20478;-76
2021/05/13 13:25:39;;;;;;;3.63;1.40;;;17.00;99.90;;;;;;5075099;28;20482;-76
2021/05/13 13:28:26;;;;;;;3.33;1.33;;;17.00;99.90;;;;;;5087822;28;20903;-76
2021/05/13 13:31:13;;;;;;;3.80;1.50;;;16.90;99.90;;;;;;5094490;28;20401;-76
2021/05/13 13:34:00;;;;;;;5.93;1.77;;;16.90;99.90;;;;;;5082306;28;20451;-76
2021/05/13 13:36:46;;;;;;;11.53;1.40;;;16.90;99.90;;;;;;5089146;28;20492;-76
2021/05/13 13:39:31;;;;;;;2.60;1.00;;;16.80;91.10;;;;;;5074414;28;20478;-76
2021/05/13 13:42:18;;;;;;;6.00;1.77;;;16.60;90.90;;;;;;5074549;28;20556;-76
2021/05/13 13:45:05;;;;;;;3.20;1.20;;;16.60;99.90;;;;;;5093972;28;20944;-76
2021/05/13 13:47:51;;;;;;;2.43;0.90;;;16.50;91.60;;;;;;5093442;28;20392;-76
2021/05/13 13:50:36;;;;;;;4.83;1.80;;;16.40;99.90;;;;;;5074755;28;20548;-76
2021/05/13 13:53:23;;;;;;;3.03;1.03;;;16.40;99.90;;;;;;5074483;28;20445;-76
2021/05/13 13:56:09;;;;;;;5.63;1.53;;;16.50;99.90;;;;;;5080289;28;20444;-75
2021/05/13 13:58:54;;;;;;;3.60;1.20;;;16.30;93.40;;;;;;5090186;28;20552;-77
2021/05/13 14:01:40;;;;;;;6.40;1.27;;;16.20;93.50;;;;;;5084685;28;20448;-75
2021/05/13 14:04:25;;;;;;;2.90;1.00;;;16.30;94.50;;;;;;5090422;28;20424;-74
2021/05/13 14:07:10;;;;;;;4.00;1.30;;;16.30;96.40;;;;;;5092109;28;20392;-76
2021/05/13 14:09:56;;;;;;;3.77;1.33;;;16.40;96.40;;;;;;5084541;28;20836;-76
2021/05/13 14:12:42;;;;;;;4.33;1.60;;;16.50;98.70;;;;;;5087738;28;21124;-76
2021/05/13 14:15:27;;;;;;;4.80;1.37;;;16.40;93.80;;;;;;5078915;28;20427;-76
2021/05/13 14:18:13;;;;;;;3.00;1.20;;;16.40;91.20;;;;;;5086897;28;20445;-76
2021/05/13 14:20:58;;;;;;;4.03;1.00;;;16.40;93.80;;;;;;5091676;28;20515;-76
2021/05/13 14:23:43;;;;;;;3.00;1.10;;;16.50;92.60;;;;;;5092152;28;20460;-76
2021/05/13 14:26:29;;;;;;;4.70;1.30;;;16.50;87.10;;;;;;5078393;28;20547;-76
2021/05/13 14:29:14;;;;;;;2.30;1.17;;;16.60;90.30;;;;;;5083991;28;20467;-76
2021/05/13 14:31:59;;;;;;;2.23;1.03;;;16.50;91.20;;;;;;5090466;28;20972;-75